createdAt,value
2018-08-18T00:00:46.160Z,15.70
2018-08-18T00:03:49.696Z,15.70
2018-08-18T00:06:53.175Z,15.70
2018-08-18T00:09:56.704Z,15.70
2018-08-18T00:13:00.268Z,15.60
2018-08-18T00:16:03.839Z,15.60
2018-08-18T00:19:07.323Z,15.50
2018-08-18T00:22:11.431Z,15.50
2018-08-18T00:25:14.938Z,15.50
2018-08-18T00:28:20.934Z,15.50
2018-08-18T00:31:24.419Z,15.50
2018-08-18T00:34:27.899Z,15.40
2018-08-18T00:37:31.398Z,15.40
2018-08-18T00:40:34.888Z,15.40
2018-08-18T00:43:38.443Z,15.40
2018-08-18T00:46:41.908Z,15.40
2018-08-18T00:49:45.431Z,15.40
2018-08-18T00:52:48.935Z,15.30
2018-08-18T00:55:52.432Z,15.40
2018-08-18T00:58:56.562Z,15.30
2018-08-18T01:02:00.065Z,15.30
2018-08-18T01:05:04.310Z,15.30
2018-08-18T01:08:08.112Z,15.30
2018-08-18T01:11:12.001Z,15.30
2018-08-18T01:14:21.806Z,15.30
2018-08-18T01:17:25.763Z,15.20
2018-08-18T01:20:29.341Z,15.20
2018-08-18T01:23:32.829Z,15.20
2018-08-18T01:26:36.319Z,15.20
2018-08-18T01:29:39.952Z,15.20
2018-08-18T01:32:43.431Z,15.10
2018-08-18T01:35:47.143Z,15.10
2018-08-18T01:38:50.813Z,15.10
2018-08-18T01:41:54.299Z,15.10
2018-08-18T01:44:57.791Z,15.10
2018-08-18T01:48:01.395Z,15.00
2018-08-18T01:51:17.087Z,15.00
2018-08-18T01:54:20.564Z,15.00
2018-08-18T01:57:24.103Z,15.00
2018-08-18T02:00:28.623Z,15.00
2018-08-18T02:03:32.108Z,15.00
2018-08-18T02:06:35.611Z,14.90
2018-08-18T02:09:39.120Z,14.90
2018-08-18T02:13:06.830Z,14.90
2018-08-18T02:16:10.304Z,14.90
2018-08-18T02:19:13.839Z,14.90
2018-08-18T02:22:17.347Z,14.80
2018-08-18T02:25:20.862Z,14.90
2018-08-18T02:28:28.947Z,14.90
2018-08-18T02:31:33.227Z,15.00
2018-08-18T02:34:36.728Z,15.00
2018-08-18T02:37:40.188Z,14.90
2018-08-18T02:40:43.876Z,14.90
2018-08-18T02:43:47.343Z,14.90
2018-08-18T02:46:50.829Z,14.90
2018-08-18T02:49:55.488Z,14.80
2018-08-18T02:52:59.075Z,14.80
2018-08-18T02:56:02.551Z,14.80
2018-08-18T02:59:07.631Z,14.80
2018-08-18T03:02:11.308Z,14.70
2018-08-18T03:05:14.794Z,14.70
2018-08-18T03:08:18.266Z,14.70
2018-08-18T03:11:21.749Z,14.60
2018-08-18T03:14:25.211Z,14.70
2018-08-18T03:17:28.700Z,14.60
2018-08-18T03:20:32.174Z,14.60
2018-08-18T03:23:35.850Z,14.60
2018-08-18T03:26:40.999Z,14.60
2018-08-18T03:29:49.843Z,14.60
2018-08-18T03:32:53.319Z,14.50
2018-08-18T03:35:56.779Z,14.50
2018-08-18T03:39:00.521Z,14.50
2018-08-18T03:42:04.853Z,14.60
2018-08-18T03:45:08.416Z,14.60
2018-08-18T03:48:11.910Z,14.60
2018-08-18T03:51:15.479Z,14.70
2018-08-18T03:54:19.077Z,14.70
2018-08-18T03:57:22.659Z,14.70
2018-08-18T04:00:26.143Z,14.70
2018-08-18T04:03:30.201Z,14.80
2018-08-18T04:06:34.228Z,14.80
2018-08-18T04:09:39.023Z,14.80
2018-08-18T04:12:42.515Z,14.90
2018-08-18T04:15:46.176Z,14.90
2018-08-18T04:18:52.914Z,15.00
2018-08-18T04:21:57.135Z,15.10
2018-08-18T04:25:00.664Z,15.30
2018-08-18T04:28:04.167Z,15.50
2018-08-18T04:31:08.047Z,15.70
2018-08-18T04:34:11.536Z,15.80
2018-08-18T04:37:15.031Z,15.90
2018-08-18T04:40:18.955Z,16.00
2018-08-18T04:43:22.464Z,16.10
2018-08-18T04:46:25.999Z,16.20
2018-08-18T04:49:29.507Z,16.30
2018-08-18T04:52:32.999Z,16.40
2018-08-18T04:55:36.687Z,16.50
2018-08-18T04:58:40.396Z,16.50
2018-08-18T05:01:43.911Z,16.60
2018-08-18T05:04:47.391Z,16.70
2018-08-18T05:07:51.280Z,16.90
2018-08-18T05:10:55.128Z,17.00
2018-08-18T05:13:59.156Z,17.10
2018-08-18T05:17:02.639Z,17.20
2018-08-18T05:20:12.172Z,17.40
2018-08-18T05:23:23.564Z,17.50
2018-08-18T05:26:27.093Z,17.60
2018-08-18T05:29:30.598Z,18.00
2018-08-18T05:32:34.558Z,18.20
2018-08-18T05:35:38.072Z,18.30
2018-08-18T05:38:42.527Z,18.60
2018-08-18T05:41:46.020Z,18.70
2018-08-18T05:44:49.555Z,18.90
2018-08-18T05:47:53.828Z,18.90
2018-08-18T05:50:57.340Z,19.00
2018-08-18T05:54:00.806Z,19.10
2018-08-18T05:57:04.332Z,19.20
2018-08-18T06:00:12.100Z,19.30
2018-08-18T06:03:19.679Z,19.40
2018-08-18T06:06:23.192Z,19.90
2018-08-18T06:09:26.690Z,21.10
2018-08-18T06:12:30.237Z,23.30
2018-08-18T06:15:33.949Z,25.40
2018-08-18T06:18:38.918Z,26.60
2018-08-18T06:21:42.472Z,27.70
2018-08-18T06:24:45.955Z,28.60
2018-08-18T06:27:49.470Z,29.30
2018-08-18T06:30:53.086Z,29.10
2018-08-18T06:33:56.581Z,28.10
2018-08-18T06:37:00.735Z,27.30
2018-08-18T06:40:04.347Z,26.40
2018-08-18T06:43:07.911Z,25.70
2018-08-18T06:46:11.436Z,25.40
2018-08-18T06:49:14.908Z,25.40
2018-08-18T06:52:20.286Z,26.30
2018-08-18T06:55:23.767Z,28.00
2018-08-18T06:58:27.418Z,30.60
2018-08-18T07:01:30.899Z,32.80
2018-08-18T07:04:34.496Z,34.60
2018-08-18T07:07:38.048Z,36.00
2018-08-18T07:10:41.591Z,36.80
2018-08-18T07:13:46.023Z,37.60
2018-08-18T07:16:49.530Z,38.10
2018-08-18T07:19:53.036Z,38.50
2018-08-18T07:22:56.605Z,39.00
2018-08-18T07:26:01.261Z,39.30
2018-08-18T07:29:04.947Z,39.80
2018-08-18T07:32:08.331Z,40.60
2018-08-18T07:35:11.819Z,41.00
2018-08-18T07:38:15.304Z,41.90
2018-08-18T07:41:19.467Z,42.80
2018-08-18T07:44:22.951Z,43.50
2018-08-18T07:47:30.647Z,43.60
2018-08-18T07:50:34.559Z,44.40
2018-08-18T07:53:38.147Z,44.70
2018-08-18T07:56:41.550Z,44.70
2018-08-18T07:59:45.086Z,44.70
2018-08-18T08:02:48.898Z,45.10
2018-08-18T08:05:52.400Z,45.20
2018-08-18T08:08:55.951Z,45.10
2018-08-18T08:11:59.439Z,44.10
2018-08-18T08:15:02.952Z,43.70
2018-08-18T08:18:06.531Z,43.70
2018-08-18T08:21:10.142Z,44.00
2018-08-18T08:24:13.623Z,43.60
2018-08-18T08:27:50.792Z,43.70
2018-08-18T08:30:54.279Z,44.00
2018-08-18T08:33:57.775Z,43.50
2018-08-18T08:37:01.294Z,43.30
2018-08-18T08:40:07.294Z,42.90
2018-08-18T08:43:23.951Z,43.00
2018-08-18T08:46:27.649Z,43.10
2018-08-18T08:49:32.116Z,42.90
2018-08-18T08:52:41.311Z,43.00
2018-08-18T08:55:45.221Z,43.20
2018-08-18T08:58:51.468Z,43.50
2018-08-18T09:01:55.097Z,43.70
2018-08-18T09:04:59.803Z,43.70
2018-08-18T09:08:03.394Z,43.70
2018-08-18T09:11:08.171Z,43.30
2018-08-18T09:14:11.683Z,43.00
2018-08-18T09:17:15.156Z,43.00
2018-08-18T09:20:19.652Z,43.10
2018-08-18T09:23:23.571Z,43.20
2018-08-18T09:26:27.098Z,43.10
2018-08-18T09:29:35.979Z,42.70
2018-08-18T09:32:39.483Z,42.40
2018-08-18T09:35:55.019Z,41.60
2018-08-18T09:38:58.531Z,40.80
2018-08-18T09:42:04.171Z,40.30
2018-08-18T09:45:08.221Z,40.00
2018-08-18T09:48:12.032Z,39.10
2018-08-18T09:51:15.587Z,38.50
2018-08-18T09:54:19.125Z,37.60
2018-08-18T09:57:22.608Z,36.50
2018-08-18T10:00:31.543Z,35.50
2018-08-18T10:03:35.090Z,34.30
2018-08-18T10:06:38.600Z,33.40
2018-08-18T10:09:42.107Z,32.70
2018-08-18T10:12:45.591Z,32.00
2018-08-18T10:15:49.064Z,31.50
2018-08-18T10:18:52.579Z,31.00
2018-08-18T10:21:56.097Z,30.50
2018-08-18T10:24:59.588Z,30.20
2018-08-18T10:28:03.114Z,30.10
2018-08-18T10:31:07.232Z,29.90
2018-08-18T10:34:10.721Z,29.80
2018-08-18T10:37:14.819Z,29.70
2018-08-18T10:40:18.306Z,29.50
2018-08-18T10:43:21.807Z,29.40
2018-08-18T10:46:25.324Z,29.50
2018-08-18T10:49:40.332Z,29.40
2018-08-18T10:52:59.311Z,29.30
2018-08-18T10:56:03.518Z,29.30
2018-08-18T10:59:20.093Z,29.20
2018-08-18T11:02:33.917Z,29.10
2018-08-18T11:05:40.609Z,29.00
2018-08-18T11:08:44.256Z,29.00
2018-08-18T11:11:47.781Z,29.00
2018-08-18T11:14:56.742Z,29.00
2018-08-18T11:18:01.358Z,29.00
2018-08-18T11:21:05.132Z,29.00
2018-08-18T11:24:09.307Z,28.90
2018-08-18T11:27:14.024Z,28.90
2018-08-18T11:30:17.931Z,28.80
2018-08-18T11:33:34.960Z,28.80
2018-08-18T11:36:49.049Z,28.80
2018-08-18T11:39:56.915Z,28.70
2018-08-18T11:43:03.748Z,28.70
2018-08-18T11:46:07.850Z,28.60
2018-08-18T11:49:11.340Z,28.60
2018-08-18T11:52:14.831Z,28.60
2018-08-18T11:55:19.811Z,28.50
2018-08-18T11:58:24.469Z,28.50
2018-08-18T12:01:33.149Z,28.60
2018-08-18T12:04:36.659Z,28.60
2018-08-18T12:07:40.164Z,28.50
2018-08-18T12:10:44.033Z,28.60
2018-08-18T12:13:47.672Z,28.70
2018-08-18T12:16:54.600Z,28.70
2018-08-18T12:20:02.559Z,28.60
2018-08-18T12:23:06.362Z,28.50
2018-08-18T12:26:14.410Z,28.50
2018-08-18T12:29:17.968Z,28.40
2018-08-18T12:32:28.749Z,28.30
2018-08-18T12:35:33.300Z,28.30
2018-08-18T12:38:37.239Z,28.40
2018-08-18T12:41:41.119Z,28.40
2018-08-18T12:44:45.408Z,28.40
2018-08-18T12:48:00.896Z,28.40
2018-08-18T12:51:05.532Z,28.40
2018-08-18T12:54:09.071Z,28.50
2018-08-18T12:57:12.563Z,28.50
2018-08-18T13:00:16.089Z,28.50
2018-08-18T13:03:20.511Z,28.50
2018-08-18T13:06:24.075Z,28.50
2018-08-18T13:09:28.027Z,28.60
2018-08-18T13:12:31.487Z,28.60
2018-08-18T13:15:34.983Z,28.70
2018-08-18T13:18:38.517Z,28.80
2018-08-18T13:21:41.990Z,28.90
2018-08-18T13:24:45.475Z,28.80
2018-08-18T13:27:54.134Z,28.80
2018-08-18T13:30:57.653Z,28.80
2018-08-18T13:34:01.119Z,28.90
2018-08-18T13:37:05.039Z,28.90
2018-08-18T13:40:11.399Z,29.00
2018-08-18T13:43:14.887Z,28.90
2018-08-18T13:46:20.528Z,28.90
2018-08-18T13:49:25.611Z,28.80
2018-08-18T13:52:34.967Z,28.70
2018-08-18T13:55:39.996Z,28.80
2018-08-18T13:58:43.497Z,28.70
2018-08-18T14:01:47.008Z,28.70
2018-08-18T14:04:50.496Z,28.70
2018-08-18T14:07:57.018Z,28.70
2018-08-18T14:11:00.532Z,28.70
2018-08-18T14:14:04.048Z,28.70
2018-08-18T14:17:07.635Z,28.60
2018-08-18T14:20:11.146Z,28.60
2018-08-18T14:23:14.648Z,28.60
2018-08-18T14:26:18.192Z,28.50
2018-08-18T14:29:21.695Z,28.50
2018-08-18T14:32:29.166Z,28.40
2018-08-18T14:35:32.676Z,28.30
2018-08-18T14:38:36.159Z,28.20
2018-08-18T14:41:40.096Z,28.20
2018-08-18T14:44:43.665Z,28.10
2018-08-18T14:47:48.310Z,28.00
2018-08-18T14:50:51.832Z,28.00
2018-08-18T14:53:55.321Z,27.90
2018-08-18T14:57:01.063Z,27.90
2018-08-18T15:00:04.562Z,27.80
2018-08-18T15:03:08.054Z,27.80
2018-08-18T15:06:12.819Z,27.80
2018-08-18T15:09:28.035Z,27.80
2018-08-18T15:12:31.609Z,27.70
2018-08-18T15:15:35.681Z,27.70
2018-08-18T15:18:39.522Z,27.60
2018-08-18T15:21:43.216Z,27.50
2018-08-18T15:24:46.712Z,27.50
2018-08-18T15:27:50.199Z,27.40
2018-08-18T15:30:54.966Z,27.40
2018-08-18T15:33:58.555Z,27.40
2018-08-18T15:37:02.080Z,27.40
2018-08-18T15:40:05.779Z,27.40
2018-08-18T15:43:09.291Z,27.40
2018-08-18T15:46:12.806Z,27.30
2018-08-18T15:49:16.343Z,27.30
2018-08-18T15:52:21.367Z,27.30
2018-08-18T15:55:24.855Z,27.30
2018-08-18T15:58:28.335Z,27.30
2018-08-18T16:01:33.256Z,27.20
2018-08-18T16:04:36.763Z,27.10
2018-08-18T16:07:40.234Z,27.00
2018-08-18T16:10:43.720Z,26.90
2018-08-18T16:13:47.219Z,26.70
2018-08-18T16:17:01.236Z,26.60
2018-08-18T16:20:05.789Z,26.50
2018-08-18T16:23:13.472Z,26.40
2018-08-18T16:26:16.984Z,26.30
2018-08-18T16:29:21.143Z,26.20
2018-08-18T16:32:27.111Z,26.10
2018-08-18T16:35:30.595Z,26.00
2018-08-18T16:38:34.311Z,25.80
2018-08-18T16:41:37.843Z,25.70
2018-08-18T16:44:42.147Z,25.50
2018-08-18T16:47:51.912Z,25.30
2018-08-18T16:50:55.433Z,25.20
2018-08-18T16:54:14.301Z,25.00
2018-08-18T16:57:17.803Z,24.80
2018-08-18T17:00:21.303Z,24.60
2018-08-18T17:03:34.032Z,24.40
2018-08-18T17:06:37.531Z,24.30
2018-08-18T17:09:43.152Z,24.10
2018-08-18T17:12:46.639Z,23.90
2018-08-18T17:15:50.563Z,23.80
2018-08-18T17:18:54.052Z,23.60
2018-08-18T17:21:57.747Z,23.50
2018-08-18T17:25:01.226Z,23.40
2018-08-18T17:28:04.739Z,23.20
2018-08-18T17:31:08.258Z,23.10
2018-08-18T17:34:11.736Z,23.00
2018-08-18T17:37:15.226Z,22.80
2018-08-18T17:40:18.739Z,22.70
2018-08-18T17:43:22.503Z,22.60
2018-08-18T17:46:25.987Z,22.50
2018-08-18T17:49:29.546Z,22.40
2018-08-18T17:52:33.076Z,22.30
2018-08-18T17:55:36.571Z,22.20
2018-08-18T17:58:40.055Z,22.10
2018-08-18T18:01:55.844Z,22.00
2018-08-18T18:05:04.658Z,21.90
2018-08-18T18:08:08.191Z,21.70
2018-08-18T18:11:11.716Z,21.60
2018-08-18T18:14:15.339Z,21.40
2018-08-18T18:17:19.948Z,21.30
2018-08-18T18:20:23.704Z,21.30
2018-08-18T18:23:27.204Z,21.10
2018-08-18T18:26:32.027Z,21.00
2018-08-18T18:29:35.528Z,20.80
2018-08-18T18:32:39.001Z,20.80
2018-08-18T18:35:42.515Z,20.70
2018-08-18T18:38:55.564Z,20.60
2018-08-18T18:41:59.076Z,20.50
2018-08-18T18:45:02.567Z,20.40
2018-08-18T18:48:07.528Z,20.30
2018-08-18T18:51:11.056Z,20.20
2018-08-18T18:54:14.560Z,20.10
2018-08-18T18:57:18.083Z,20.00
2018-08-18T19:00:21.593Z,19.90
2018-08-18T19:03:25.127Z,19.90
2018-08-18T19:06:28.643Z,19.70
2018-08-18T19:09:32.211Z,19.70
2018-08-18T19:12:35.723Z,19.60
2018-08-18T19:15:39.310Z,19.50
2018-08-18T19:18:42.809Z,19.40
2018-08-18T19:21:46.319Z,19.40
2018-08-18T19:24:49.779Z,19.30
2018-08-18T19:27:53.271Z,19.20
2018-08-18T19:30:56.765Z,19.20
2018-08-18T19:34:10.557Z,19.10
2018-08-18T19:37:14.055Z,19.10
2018-08-18T19:40:17.652Z,19.10
2018-08-18T19:43:22.303Z,19.00
2018-08-18T19:46:25.782Z,18.90
2018-08-18T19:49:37.311Z,18.90
2018-08-18T19:52:40.831Z,18.90
2018-08-18T19:55:44.300Z,18.80
2018-08-18T19:58:47.799Z,18.80
2018-08-18T20:01:51.318Z,18.70
2018-08-18T20:04:54.846Z,18.70
2018-08-18T20:07:58.342Z,18.60
2018-08-18T20:11:02.033Z,18.60
2018-08-18T20:14:05.515Z,18.60
2018-08-18T20:17:09.016Z,18.50
2018-08-18T20:20:13.743Z,18.50
2018-08-18T20:23:18.512Z,18.50
2018-08-18T20:26:21.999Z,18.40
2018-08-18T20:29:26.168Z,18.40
2018-08-18T20:32:29.645Z,18.40
2018-08-18T20:35:33.134Z,18.40
2018-08-18T20:38:41.771Z,18.30
2018-08-18T20:41:45.241Z,18.30
2018-08-18T20:44:48.719Z,18.30
2018-08-18T20:47:52.199Z,18.20
2018-08-18T20:50:55.729Z,18.20
2018-08-18T20:53:59.238Z,18.20
2018-08-18T20:57:02.727Z,18.10
2018-08-18T21:00:08.240Z,18.10
2018-08-18T21:03:11.843Z,18.10
2018-08-18T21:06:16.591Z,18.00
2018-08-18T21:09:29.764Z,18.00
2018-08-18T21:12:42.288Z,18.00
2018-08-18T21:15:45.769Z,17.90
2018-08-18T21:18:49.260Z,17.90
2018-08-18T21:21:53.864Z,17.90
2018-08-18T21:24:57.275Z,17.90
2018-08-18T21:28:00.766Z,17.90
2018-08-18T21:31:04.287Z,17.80
2018-08-18T21:34:08.519Z,17.80
2018-08-18T21:37:12.039Z,17.80
2018-08-18T21:40:15.528Z,17.80
2018-08-18T21:43:32.975Z,17.80
2018-08-18T21:46:36.860Z,17.80
2018-08-18T21:49:43.676Z,17.70
2018-08-18T21:52:47.151Z,17.70
2018-08-18T21:55:50.630Z,17.70
2018-08-18T21:58:54.111Z,17.70
2018-08-18T22:01:58.371Z,17.60
2018-08-18T22:05:01.943Z,17.60
2018-08-18T22:08:05.543Z,17.60
2018-08-18T22:11:12.990Z,17.60
2018-08-18T22:14:17.595Z,17.60
2018-08-18T22:17:21.095Z,17.60
2018-08-18T22:20:24.603Z,17.60
2018-08-18T22:23:28.080Z,17.60
2018-08-18T22:26:31.607Z,17.50
2018-08-18T22:29:35.092Z,17.50
2018-08-18T22:32:40.811Z,17.50
2018-08-18T22:35:49.647Z,17.50
2018-08-18T22:38:53.583Z,17.40
2018-08-18T22:41:57.095Z,17.40
2018-08-18T22:45:11.650Z,17.40
2018-08-18T22:48:15.154Z,17.30
2018-08-18T22:51:18.867Z,17.30
2018-08-18T22:54:22.379Z,17.20
2018-08-18T22:57:25.855Z,17.20
2018-08-18T23:00:29.686Z,17.20
2018-08-18T23:03:33.179Z,17.10
2018-08-18T23:06:36.999Z,17.10
2018-08-18T23:09:40.499Z,17.00
2018-08-18T23:12:44.003Z,17.00
2018-08-18T23:15:47.555Z,16.90
2018-08-18T23:18:51.145Z,16.90
2018-08-18T23:21:54.648Z,16.80
2018-08-18T23:24:58.139Z,16.80
2018-08-18T23:28:01.667Z,16.80
2018-08-18T23:31:05.515Z,16.80
2018-08-18T23:34:09.050Z,16.80
2018-08-18T23:37:17.575Z,16.70
2018-08-18T23:40:21.079Z,16.70
2018-08-18T23:43:24.568Z,16.70
2018-08-18T23:46:28.139Z,16.60
2018-08-18T23:49:31.619Z,16.60
2018-08-18T23:52:49.194Z,16.60
2018-08-18T23:55:59.270Z,16.50
2018-08-18T23:59:02.811Z,16.50
